createdAt,value
2022-09-10T00:00:44.439Z,2.33
2022-09-10T00:03:11.791Z,2.05
2022-09-10T00:05:44.126Z,2.45
2022-09-10T00:08:11.418Z,2.33
2022-09-10T00:10:47.971Z,2.03
2022-09-10T00:13:17.313Z,2.33
2022-09-10T00:15:50.172Z,2.03
2022-09-10T00:18:19.501Z,2.25
2022-09-10T00:20:54.818Z,2.60
2022-09-10T00:23:25.867Z,2.20
2022-09-10T00:25:55.162Z,2.00
2022-09-10T00:28:24.269Z,3.00
2022-09-10T00:30:54.563Z,2.08
2022-09-10T00:33:22.986Z,3.08
2022-09-10T00:35:51.261Z,2.55
2022-09-10T00:38:18.713Z,2.40
2022-09-10T00:40:46.876Z,2.22
2022-09-10T00:43:16.860Z,2.03
2022-09-10T00:45:44.755Z,2.63
2022-09-10T00:48:16.692Z,2.13
2022-09-10T00:50:46.518Z,2.20
2022-09-10T00:53:16.448Z,3.13
2022-09-10T00:55:45.533Z,2.22
2022-09-10T00:58:14.013Z,2.63
2022-09-10T01:00:42.027Z,2.20
2022-09-10T01:03:11.313Z,2.00
2022-09-10T01:05:42.496Z,2.30
2022-09-10T01:08:15.206Z,2.38
2022-09-10T01:11:16.515Z,2.22
2022-09-10T01:14:15.685Z,1.85
2022-09-10T01:16:53.597Z,2.55
2022-09-10T01:19:32.810Z,1.80
2022-09-10T01:22:22.472Z,2.50
2022-09-10T01:24:54.517Z,2.17
2022-09-10T01:27:30.954Z,2.78
2022-09-10T01:30:04.438Z,2.10
2022-09-10T01:32:39.905Z,2.75
2022-09-10T01:35:22.302Z,2.00
2022-09-10T01:37:54.594Z,2.45
2022-09-10T01:40:29.703Z,2.28
2022-09-10T01:43:07.378Z,2.10
2022-09-10T01:45:58.022Z,2.00
2022-09-10T01:48:56.024Z,2.60
2022-09-10T01:51:26.380Z,2.60
2022-09-10T01:54:26.305Z,1.90
2022-09-10T01:57:05.124Z,2.60
2022-09-10T01:59:46.965Z,2.03
2022-09-10T02:02:37.531Z,2.40
2022-09-10T02:07:35.467Z,2.53
2022-09-10T02:10:07.358Z,1.73
2022-09-10T02:12:40.070Z,2.83
2022-09-10T02:15:34.813Z,2.40
2022-09-10T02:18:22.403Z,2.10
2022-09-10T02:20:51.705Z,1.60
2022-09-10T02:23:46.517Z,2.93
2022-09-10T02:26:14.930Z,2.10
2022-09-10T02:28:45.537Z,2.30
2022-09-10T02:31:13.326Z,2.45
2022-09-10T02:33:41.289Z,2.30
2022-09-10T02:36:08.644Z,2.63
2022-09-10T02:38:35.944Z,2.10
2022-09-10T02:41:03.480Z,2.30
2022-09-10T02:43:31.854Z,2.42
2022-09-10T02:46:02.370Z,2.47
2022-09-10T02:48:31.069Z,2.28
2022-09-10T02:50:58.878Z,2.22
2022-09-10T02:53:29.325Z,2.85
2022-09-10T02:55:58.484Z,2.85
2022-09-10T02:58:25.807Z,2.38
2022-09-10T03:00:53.432Z,2.13
2022-09-10T03:03:20.703Z,2.67
2022-09-10T03:05:48.366Z,3.10
2022-09-10T03:08:16.036Z,2.53
2022-09-10T03:13:13.150Z,2.85
2022-09-10T03:15:42.459Z,2.58
2022-09-10T03:18:10.048Z,2.67
2022-09-10T03:20:41.867Z,3.00
2022-09-10T03:23:11.327Z,2.95
2022-09-10T03:25:38.765Z,2.42
2022-09-10T03:28:08.196Z,2.55
2022-09-10T03:30:36.580Z,2.30
2022-09-10T03:33:04.735Z,2.85
2022-09-10T03:35:32.175Z,2.25
2022-09-10T03:38:02.384Z,2.10
2022-09-10T03:40:29.700Z,2.88
2022-09-10T03:42:57.109Z,2.40
2022-09-10T03:45:24.467Z,2.38
2022-09-10T03:47:51.991Z,2.90
2022-09-10T03:50:20.402Z,2.20
2022-09-10T03:52:47.647Z,2.70
2022-09-10T03:55:17.912Z,2.78
2022-09-10T03:57:46.032Z,2.35
2022-09-10T04:00:15.411Z,2.55
2022-09-10T04:02:44.102Z,2.88
2022-09-10T04:07:40.486Z,2.28
2022-09-10T04:10:08.193Z,2.50
2022-09-10T04:12:36.365Z,2.53
2022-09-10T04:15:06.406Z,2.40
2022-09-10T04:17:34.871Z,2.65
2022-09-10T04:20:02.997Z,2.90
2022-09-10T04:22:35.817Z,2.35
2022-09-10T04:25:03.808Z,2.45
2022-09-10T04:27:31.739Z,2.53
2022-09-10T04:29:58.994Z,2.13
2022-09-10T04:32:26.263Z,3.13
2022-09-10T04:34:54.321Z,2.25
2022-09-10T04:37:21.932Z,2.20
2022-09-10T04:39:49.421Z,3.17
2022-09-10T04:42:17.933Z,2.58
2022-09-10T04:44:49.484Z,2.28
2022-09-10T04:47:17.321Z,2.70
2022-09-10T04:49:44.647Z,3.03
2022-09-10T04:52:13.334Z,3.50
2022-09-10T04:54:40.782Z,2.88
2022-09-10T04:57:08.515Z,2.75
2022-09-10T04:59:36.567Z,2.67
2022-09-10T05:02:04.003Z,2.25
2022-09-10T05:04:31.229Z,2.47
2022-09-10T05:07:01.446Z,1.98
2022-09-10T05:09:31.364Z,2.33
2022-09-10T05:12:01.177Z,2.83
2022-09-10T05:14:29.490Z,2.50
2022-09-10T05:16:57.584Z,2.42
2022-09-10T05:19:25.268Z,1.80
2022-09-10T05:22:00.215Z,2.10
2022-09-10T05:24:27.430Z,1.95
2022-09-10T05:26:56.898Z,2.80
2022-09-10T05:29:24.359Z,2.47
2022-09-10T05:31:52.012Z,2.30
2022-09-10T05:34:20.482Z,2.95
2022-09-10T05:36:48.794Z,3.00
2022-09-10T05:39:16.469Z,2.30
2022-09-10T05:41:43.966Z,2.67
2022-09-10T05:44:11.302Z,2.05
2022-09-10T05:46:40.476Z,2.85
2022-09-10T05:49:13.447Z,2.63
2022-09-10T05:51:41.573Z,2.40
2022-09-10T05:54:09.606Z,2.00
2022-09-10T05:56:37.050Z,2.35
2022-09-10T05:59:04.431Z,2.20
2022-09-10T06:01:33.318Z,2.15
2022-09-10T06:04:03.032Z,2.72
2022-09-10T06:06:31.058Z,2.22
2022-09-10T06:09:04.475Z,2.05
2022-09-10T06:11:42.991Z,2.25
2022-09-10T06:14:10.983Z,2.15
2022-09-10T06:16:38.267Z,2.60
2022-09-10T06:19:08.364Z,2.67
2022-09-10T06:21:36.761Z,2.47
2022-09-10T06:24:04.730Z,2.70
2022-09-10T06:26:37.519Z,2.65
2022-09-10T06:29:10.065Z,1.80
2022-09-10T06:31:38.792Z,2.55
2022-09-10T06:34:07.514Z,2.25
2022-09-10T06:36:35.139Z,2.20
2022-09-10T06:39:03.652Z,6.13
2022-09-10T06:41:45.846Z,3.42
2022-09-10T06:44:31.649Z,4.88
2022-09-10T06:50:00.452Z,5.03
2022-09-10T06:52:29.471Z,4.47
2022-09-10T06:55:02.131Z,5.43
2022-09-10T06:57:38.130Z,2.08
2022-09-10T07:00:06.054Z,2.70
2022-09-10T07:02:34.146Z,2.50
2022-09-10T07:05:01.581Z,2.70
2022-09-10T07:07:30.422Z,4.22
2022-09-10T07:09:58.338Z,4.47
2022-09-10T07:12:25.907Z,4.35
2022-09-10T07:14:53.396Z,2.15
2022-09-10T07:17:22.087Z,2.35
2022-09-10T07:19:49.371Z,1.60
2022-09-10T07:22:38.023Z,2.30
2022-09-10T07:25:08.709Z,2.60
2022-09-10T07:27:52.620Z,3.47
2022-09-10T07:30:22.254Z,2.10
2022-09-10T07:32:50.961Z,2.83
2022-09-10T07:35:23.073Z,4.22
2022-09-10T07:37:51.388Z,2.42
2022-09-10T07:40:20.278Z,2.45
2022-09-10T07:42:47.836Z,2.45
2022-09-10T07:45:16.170Z,2.25
2022-09-10T07:47:44.720Z,2.00
2022-09-10T07:50:13.102Z,2.28
2022-09-10T07:52:41.467Z,2.30
2022-09-10T07:55:10.036Z,2.38
2022-09-10T07:57:39.759Z,1.85
2022-09-10T08:00:14.930Z,2.10
2022-09-10T08:02:50.286Z,2.35
2022-09-10T08:07:48.242Z,2.38
2022-09-10T08:10:15.835Z,2.17
2022-09-10T08:12:43.889Z,2.40
2022-09-10T08:15:12.831Z,1.92
2022-09-10T08:17:41.479Z,2.20
2022-09-10T08:20:10.218Z,2.33
2022-09-10T08:22:40.878Z,2.35
2022-09-10T08:25:08.393Z,1.90
2022-09-10T08:27:37.299Z,2.08
2022-09-10T08:30:07.296Z,2.67
2022-09-10T08:32:35.982Z,2.40
2022-09-10T08:35:05.015Z,2.63
2022-09-10T08:37:33.888Z,3.08
2022-09-10T08:40:03.260Z,3.30
2022-09-10T08:42:37.006Z,2.50
2022-09-10T08:45:07.225Z,2.40
2022-09-10T08:50:15.673Z,2.30
2022-09-10T08:52:44.392Z,3.53
2022-09-10T08:55:19.845Z,2.30
2022-09-10T08:57:59.349Z,2.33
2022-09-10T09:00:33.181Z,1.98
2022-09-10T09:03:13.053Z,1.80
2022-09-10T09:05:46.821Z,2.13
2022-09-10T09:08:27.619Z,1.73
2022-09-10T09:11:11.196Z,1.88
2022-09-10T09:14:03.193Z,3.90
2022-09-10T09:17:11.124Z,2.05
2022-09-10T09:19:54.298Z,2.10
2022-09-10T09:22:42.049Z,2.42
2022-09-10T09:25:27.225Z,2.22
2022-09-10T09:27:58.683Z,2.05
2022-09-10T09:30:35.602Z,3.03
2022-09-10T09:33:13.002Z,4.57
2022-09-10T09:35:53.109Z,1.85
2022-09-10T09:38:28.677Z,2.28
2022-09-10T09:41:00.826Z,2.60
2022-09-10T09:43:31.407Z,2.30
2022-09-10T09:46:00.173Z,2.33
2022-09-10T09:48:38.317Z,3.63
2022-09-10T09:51:08.783Z,2.38
2022-09-10T09:53:36.190Z,2.92
2022-09-10T09:56:18.273Z,9.18
2022-09-10T09:58:49.533Z,5.82
2022-09-10T10:01:19.490Z,2.50
2022-09-10T10:03:51.645Z,2.33
2022-09-10T10:06:24.779Z,2.60
2022-09-10T10:09:00.491Z,2.25
2022-09-10T10:11:50.273Z,2.90
2022-09-10T10:14:20.561Z,2.15
2022-09-10T10:16:52.309Z,2.70
2022-09-10T10:19:35.804Z,2.30
2022-09-10T10:22:18.214Z,2.42
2022-09-10T10:24:47.483Z,2.65
2022-09-10T10:27:32.063Z,2.53
2022-09-10T10:30:04.382Z,2.67
2022-09-10T10:32:44.791Z,2.33
2022-09-10T10:35:12.047Z,2.78
2022-09-10T10:38:04.033Z,2.80
2022-09-10T10:40:38.607Z,2.53
2022-09-10T10:43:26.400Z,2.60
2022-09-10T10:46:01.593Z,2.47
2022-09-10T10:49:06.110Z,2.95
2022-09-10T10:51:53.912Z,3.58
2022-09-10T10:54:43.713Z,3.55
2022-09-10T10:57:25.511Z,3.05
2022-09-10T11:00:07.674Z,3.10
2022-09-10T11:02:43.602Z,3.53
2022-09-10T11:05:18.825Z,5.95
2022-09-10T11:07:47.429Z,3.45
2022-09-10T11:10:27.246Z,3.08
2022-09-10T11:13:06.947Z,4.25
2022-09-10T11:15:37.296Z,3.45
2022-09-10T11:18:13.474Z,2.83
2022-09-10T11:20:59.264Z,3.13
2022-09-10T11:23:29.784Z,2.72
2022-09-10T11:26:19.503Z,2.80
2022-09-10T11:28:55.700Z,2.97
2022-09-10T11:32:10.446Z,3.05
2022-09-10T11:35:04.437Z,3.33
2022-09-10T11:38:08.994Z,5.35
2022-09-10T11:40:42.100Z,3.47
2022-09-10T11:43:43.451Z,2.35
2022-09-10T11:46:16.826Z,2.78
2022-09-10T11:48:51.096Z,3.15
2022-09-10T11:51:30.515Z,3.13
2022-09-10T11:53:58.138Z,2.80
2022-09-10T11:56:49.917Z,2.55
2022-09-10T11:59:27.084Z,3.10
2022-09-10T12:02:03.695Z,2.53
2022-09-10T12:04:47.704Z,2.70
2022-09-10T12:07:42.461Z,3.67
2022-09-10T12:10:32.869Z,3.55
2022-09-10T12:13:00.710Z,3.00
2022-09-10T12:15:34.493Z,2.45
2022-09-10T12:18:04.312Z,2.80
2022-09-10T12:20:34.745Z,2.75
2022-09-10T12:23:02.251Z,2.88
2022-09-10T12:25:34.338Z,2.20
2022-09-10T12:28:06.418Z,2.55
2022-09-10T12:30:33.677Z,3.25
2022-09-10T12:33:12.925Z,3.03
2022-09-10T12:35:48.343Z,2.50
2022-09-10T12:38:55.099Z,3.78
2022-09-10T12:41:25.198Z,2.92
2022-09-10T12:43:56.068Z,2.03
2022-09-10T12:46:25.425Z,2.67
2022-09-10T12:48:56.110Z,3.40
2022-09-10T12:51:46.229Z,2.17
2022-09-10T12:54:22.529Z,1.80
2022-09-10T12:57:17.456Z,1.42
2022-09-10T13:00:12.405Z,1.58
2022-09-10T13:02:48.008Z,1.77
2022-09-10T13:05:19.329Z,2.10
2022-09-10T13:07:49.202Z,1.40
2022-09-10T13:10:25.324Z,2.70
2022-09-10T13:12:55.710Z,2.97
2022-09-10T13:15:25.742Z,1.52
2022-09-10T13:17:53.912Z,1.58
2022-09-10T13:20:21.032Z,1.33
2022-09-10T13:23:15.614Z,1.45
2022-09-10T13:25:44.838Z,1.40
2022-09-10T13:28:30.475Z,1.70
2022-09-10T13:31:11.277Z,1.85
2022-09-10T13:33:51.213Z,1.50
2022-09-10T13:36:49.392Z,1.75
2022-09-10T13:39:23.700Z,2.83
2022-09-10T13:42:15.076Z,1.85
2022-09-10T13:45:20.918Z,1.30
2022-09-10T13:47:53.621Z,1.52
2022-09-10T13:50:28.752Z,1.67
2022-09-10T13:52:58.807Z,1.83
2022-09-10T13:55:28.555Z,2.05
2022-09-10T13:58:01.431Z,1.65
2022-09-10T14:00:40.982Z,1.80
2022-09-10T14:03:16.637Z,1.92
2022-09-10T14:05:48.151Z,1.83
2022-09-10T14:08:31.397Z,1.92
2022-09-10T14:11:07.700Z,2.20
2022-09-10T14:13:43.624Z,2.70
2022-09-10T14:16:12.799Z,2.92
2022-09-10T14:18:48.368Z,3.83
2022-09-10T14:21:17.968Z,2.80
2022-09-10T14:23:46.960Z,2.72
2022-09-10T14:26:19.877Z,3.03
2022-09-10T14:28:56.291Z,2.28
2022-09-10T14:31:30.078Z,2.20
2022-09-10T14:33:59.434Z,2.30
2022-09-10T14:36:31.552Z,2.15
2022-09-10T14:39:22.704Z,2.33
2022-09-10T14:42:21.797Z,2.25
2022-09-10T14:44:49.778Z,1.88
2022-09-10T14:47:29.959Z,2.40
2022-09-10T14:50:27.172Z,2.30
2022-09-10T14:52:55.410Z,2.78
2022-09-10T14:55:25.264Z,5.50
2022-09-10T14:57:54.175Z,3.58
2022-09-10T15:00:22.427Z,2.47
2022-09-10T15:02:55.903Z,2.70
2022-09-10T15:05:24.687Z,2.53
2022-09-10T15:07:51.857Z,2.53
2022-09-10T15:10:19.171Z,2.75
2022-09-10T15:12:49.801Z,2.80
2022-09-10T15:15:17.782Z,2.38
2022-09-10T15:17:45.264Z,2.22
2022-09-10T15:20:14.614Z,1.90
2022-09-10T15:22:41.829Z,2.60
2022-09-10T15:25:26.056Z,1.95
2022-09-10T15:27:53.374Z,1.98
2022-09-10T15:30:20.924Z,1.90
2022-09-10T15:32:48.204Z,1.33
2022-09-10T15:35:15.572Z,2.00
2022-09-10T15:37:42.749Z,1.50
2022-09-10T15:40:11.017Z,1.70
2022-09-10T15:42:38.293Z,1.63
2022-09-10T15:45:05.883Z,1.70
2022-09-10T15:47:33.606Z,1.92
2022-09-10T15:50:00.996Z,2.00
2022-09-10T15:52:28.200Z,1.70
2022-09-10T15:54:55.426Z,1.88
2022-09-10T15:57:22.755Z,1.58
2022-09-10T15:59:50.207Z,2.25
2022-09-10T16:02:18.423Z,1.83
2022-09-10T16:04:45.622Z,1.98
2022-09-10T16:07:14.437Z,1.90
2022-09-10T16:09:43.489Z,1.90
2022-09-10T16:12:10.859Z,1.70
2022-09-10T16:14:38.271Z,2.10
2022-09-10T16:17:10.570Z,1.70
2022-09-10T16:19:38.678Z,2.17
2022-09-10T16:22:06.133Z,1.90
2022-09-10T16:24:33.489Z,2.15
2022-09-10T16:27:00.768Z,2.08
2022-09-10T16:29:32.398Z,2.20
2022-09-10T16:32:00.262Z,2.63
2022-09-10T16:34:27.513Z,2.22
2022-09-10T16:36:54.907Z,2.20
2022-09-10T16:39:22.312Z,3.05
2022-09-10T16:41:50.738Z,2.53
2022-09-10T16:44:18.558Z,2.10
2022-09-10T16:46:47.183Z,2.45
2022-09-10T16:49:18.144Z,2.28
2022-09-10T16:51:46.775Z,1.70
2022-09-10T16:54:14.953Z,2.47
2022-09-10T16:56:44.121Z,3.20
2022-09-10T16:59:31.726Z,2.67
2022-09-10T17:02:00.573Z,2.88
2022-09-10T17:04:29.128Z,3.47
2022-09-10T17:06:57.648Z,2.95
2022-09-10T17:09:25.232Z,2.50
2022-09-10T17:11:56.120Z,2.80
2022-09-10T17:14:24.409Z,2.72
2022-09-10T17:16:52.221Z,3.10
2022-09-10T17:19:23.440Z,2.15
2022-09-10T17:21:53.292Z,2.58
2022-09-10T17:24:22.451Z,2.80
2022-09-10T17:26:50.441Z,3.72
2022-09-10T17:29:20.282Z,3.42
2022-09-10T17:31:47.605Z,3.47
2022-09-10T17:34:16.280Z,3.42
2022-09-10T17:36:45.707Z,3.85
2022-09-10T17:39:13.686Z,3.70
2022-09-10T17:41:41.479Z,2.63
2022-09-10T17:44:09.835Z,3.20
2022-09-10T17:46:37.946Z,3.13
2022-09-10T17:49:05.538Z,4.82
2022-09-10T17:51:34.634Z,5.65
2022-09-10T17:54:04.845Z,5.80
2022-09-10T17:59:01.627Z,4.82
2022-09-10T18:01:34.240Z,3.92
2022-09-10T18:04:01.784Z,4.38
2022-09-10T18:06:29.236Z,4.43
2022-09-10T18:09:03.550Z,3.67
2022-09-10T18:11:33.003Z,3.70
2022-09-10T18:14:01.233Z,3.40
2022-09-10T18:16:31.176Z,3.22
2022-09-10T18:19:04.370Z,2.90
2022-09-10T18:21:34.051Z,3.45
2022-09-10T18:24:07.973Z,3.90
2022-09-10T18:26:39.403Z,4.50
2022-09-10T18:29:10.170Z,3.63
2022-09-10T18:31:41.273Z,3.90
2022-09-10T18:34:12.443Z,4.28
2022-09-10T18:36:39.814Z,4.05
2022-09-10T18:39:10.697Z,5.90
2022-09-10T18:41:39.891Z,5.70
2022-09-10T18:44:10.891Z,4.07
2022-09-10T18:46:38.368Z,5.35
2022-09-10T18:49:05.713Z,8.50
2022-09-10T18:51:33.070Z,8.45
2022-09-10T18:54:01.127Z,18.88
2022-09-10T18:56:30.587Z,12.15
2022-09-10T18:59:06.990Z,8.02
2022-09-10T19:01:35.882Z,7.13
2022-09-10T19:04:05.778Z,4.72
2022-09-10T19:06:35.268Z,5.50
2022-09-10T19:09:05.751Z,4.13
2022-09-10T19:11:38.147Z,3.75
2022-09-10T19:14:08.797Z,3.70
2022-09-10T19:16:36.115Z,4.00
2022-09-10T19:19:06.004Z,3.00
2022-09-10T19:21:35.335Z,4.18
2022-09-10T19:24:03.687Z,2.93
2022-09-10T19:26:34.768Z,3.00
2022-09-10T19:29:02.810Z,3.08
2022-09-10T19:31:33.944Z,3.30
2022-09-10T19:34:04.150Z,3.47
2022-09-10T19:39:01.792Z,3.33
2022-09-10T19:41:29.032Z,3.45
2022-09-10T19:43:56.675Z,2.72
2022-09-10T19:46:28.154Z,3.33
2022-09-10T19:48:59.384Z,3.83
2022-09-10T19:51:28.695Z,4.55
2022-09-10T19:53:56.198Z,5.05
2022-09-10T19:56:26.033Z,5.63
2022-09-10T19:58:55.662Z,4.82
2022-09-10T20:01:25.736Z,4.85
2022-09-10T20:06:23.861Z,4.75
2022-09-10T20:08:52.373Z,4.50
2022-09-10T20:11:21.869Z,5.57
2022-09-10T20:13:49.561Z,4.70
2022-09-10T20:16:17.034Z,4.90
2022-09-10T20:18:45.592Z,4.22
2022-09-10T20:21:24.972Z,4.20
2022-09-10T20:23:55.574Z,3.97
2022-09-10T20:26:23.943Z,5.80
2022-09-10T20:28:53.622Z,4.35
2022-09-10T20:31:22.196Z,4.15
2022-09-10T20:33:54.626Z,4.82
2022-09-10T20:36:23.005Z,4.65
2022-09-10T20:38:51.777Z,3.50
2022-09-10T20:41:19.305Z,4.03
2022-09-10T20:43:53.445Z,3.90
2022-09-10T20:46:22.379Z,3.97
2022-09-10T20:48:52.222Z,5.05
2022-09-10T20:51:20.579Z,4.97
2022-09-10T20:53:48.524Z,4.70
2022-09-10T20:56:18.519Z,4.60
2022-09-10T20:58:46.662Z,4.53
2022-09-10T21:01:23.191Z,4.70
2022-09-10T21:03:54.780Z,4.70
2022-09-10T21:06:25.173Z,4.53
2022-09-10T21:08:52.622Z,3.92
2022-09-10T21:11:21.029Z,3.90
2022-09-10T21:13:55.965Z,3.60
2022-09-10T21:16:28.534Z,3.90
2022-09-10T21:19:00.944Z,3.65
2022-09-10T21:21:30.257Z,3.80
2022-09-10T21:23:59.341Z,3.33
2022-09-10T21:26:32.620Z,3.45
2022-09-10T21:29:02.344Z,3.58
2022-09-10T21:31:30.402Z,3.75
2022-09-10T21:34:02.655Z,3.72
2022-09-10T21:36:32.084Z,3.35
2022-09-10T21:39:01.207Z,4.10
2022-09-10T21:41:35.535Z,3.40
2022-09-10T21:44:05.993Z,3.90
2022-09-10T21:46:34.298Z,4.10
2022-09-10T21:49:02.417Z,4.57
2022-09-10T21:51:29.790Z,5.13
2022-09-10T21:53:57.861Z,6.72
2022-09-10T21:56:27.526Z,6.05
2022-09-10T21:58:56.604Z,6.55
2022-09-10T22:01:26.426Z,8.25
2022-09-10T22:03:56.372Z,9.88
2022-09-10T22:06:25.955Z,10.85
2022-09-10T22:08:58.417Z,12.65
2022-09-10T22:11:32.091Z,11.00
2022-09-10T22:14:01.612Z,10.82
2022-09-10T22:16:31.122Z,11.63
2022-09-10T22:19:01.198Z,11.35
2022-09-10T22:21:29.016Z,11.98
2022-09-10T22:23:56.254Z,12.85
2022-09-10T22:26:25.484Z,11.85
2022-09-10T22:28:54.290Z,13.75
2022-09-10T22:31:27.290Z,15.38
2022-09-10T22:33:57.106Z,15.63
2022-09-10T22:36:28.701Z,15.57
2022-09-10T22:38:59.301Z,16.85
2022-09-10T22:41:27.119Z,17.23
2022-09-10T22:43:54.852Z,12.93
2022-09-10T22:46:23.691Z,14.43
2022-09-10T22:48:51.129Z,13.77
2022-09-10T22:51:23.308Z,13.85
2022-09-10T22:53:52.543Z,13.93
2022-09-10T22:56:22.156Z,10.93
2022-09-10T22:58:52.833Z,12.98
2022-09-10T23:01:23.012Z,13.10
2022-09-10T23:06:22.482Z,11.77
2022-09-10T23:08:54.669Z,11.93
2022-09-10T23:11:27.371Z,12.55
2022-09-10T23:14:01.404Z,12.15
2022-09-10T23:16:31.859Z,11.85
2022-09-10T23:19:01.324Z,11.65
2022-09-10T23:21:30.221Z,12.15
2022-09-10T23:24:00.439Z,10.95
2022-09-10T23:28:55.586Z,9.57
2022-09-10T23:31:27.457Z,10.38
2022-09-10T23:33:59.899Z,9.85
2022-09-10T23:36:29.891Z,9.23
2022-09-10T23:39:01.424Z,10.15
2022-09-10T23:41:29.867Z,9.50
2022-09-10T23:43:57.401Z,9.77
2022-09-10T23:46:25.383Z,9.50
2022-09-10T23:48:52.665Z,8.90
2022-09-10T23:51:20.833Z,8.70
2022-09-10T23:53:48.753Z,8.45
2022-09-10T23:56:19.005Z,8.38
2022-09-10T23:58:47.690Z,8.07
